Time;durP1;ratioP1;P1;durP2;ratioP2;P2;SDS_P1;SDS_P2;PMS_P1;PMS_P2;Temp;Humidity;BMP_temperature;BMP_pressure;BME280_temperature;BME280_humidity;BME280_pressure;Samples;Min_cycle;Max_cycle;Signal;HPM_P1;HPM_P2
2022/01/30 00:00:00;;;;;;;2.52;2.21;;;;;;;1.39;78.02;100426.94;447846;117;922703;-78
2022/01/30 00:01:02;;;;;;;2.84;2.59;;;;;;;1.39;78.15;100420.72;447680;116;922804;-76
2022/01/30 00:02:05;;;;;;;2.42;2.22;;;;;;;1.39;78.22;100426.09;447866;117;922567;-78
2022/01/30 00:03:08;;;;;;;2.51;2.31;;;;;;;1.39;78.34;100432.31;447767;118;923136;-76
2022/01/30 00:04:12;;;;;;;3.28;2.61;;;;;;;1.40;78.34;100423.25;443864;117;922992;-76
2022/01/30 00:05:15;;;;;;;2.74;2.40;;;;;;;1.41;78.37;100424.95;444061;117;922667;-78
2022/01/30 00:06:19;;;;;;;2.76;2.56;;;;;;;1.41;78.38;100422.26;443940;119;925725;-76
2022/01/30 00:07:22;;;;;;;2.80;2.60;;;;;;;1.42;78.35;100420.42;443751;119;923058;-76
2022/01/30 00:08:25;;;;;;;2.64;2.44;;;;;;;1.42;78.40;100423.95;443968;117;922921;-76
2022/01/30 00:09:28;;;;;;;2.58;2.37;;;;;;;1.42;78.53;100420.42;443893;119;922595;-77
2022/01/30 00:10:37;;;;;;;2.64;2.44;;;;;;;1.45;78.50;100420.08;443897;118;922561;-75
2022/01/30 00:11:39;;;;;;;2.72;2.52;;;;;;;1.46;78.61;100416.40;443367;118;923039;-77
2022/01/30 00:13:53;;;;;;;3.62;3.32;;;;;;;1.61;78.48;100414.78;470981;109;947640;-77
2022/01/30 00:14:57;;;;;;;3.16;2.86;;;;;;;1.50;78.20;100413.22;462040;113;922546;-75
2022/01/30 00:16:04;;;;;;;3.71;3.41;;;;;;;1.49;78.20;100408.85;462134;113;922625;-77
2022/01/30 00:17:12;;;;;;;3.36;3.06;;;;;;;1.46;78.00;100408.34;462960;114;922984;-75
2022/01/30 00:18:37;;;;;;;3.33;3.03;;;;;;;1.46;78.00;100408.34;461165;113;922818;-77
2022/01/30 00:19:54;;;;;;;3.23;2.86;;;;;;;1.47;78.10;100410.03;458445;114;922602;-76
2022/01/30 00:21:02;;;;;;;3.66;3.31;;;;;;;1.46;78.08;100411.03;460638;114;922801;-76
2022/01/30 00:22:10;;;;;;;3.61;3.31;;;;;;;1.45;78.09;100404.81;460822;113;922642;-75
2022/01/30 00:23:22;;;;;;;3.52;3.22;;;;;;;1.44;78.01;100408.49;459726;114;922618;-76
2022/01/30 00:24:18;;;;;;;3.39;3.19;;;;;;;1.44;78.06;100407.64;458862;114;922871;-76
2022/01/30 00:25:25;;;;;;;3.14;2.91;;;;;;;1.43;78.01;100404.15;463090;113;922569;-76
2022/01/30 00:26:28;;;;;;;2.82;2.62;;;;;;;1.42;78.06;100406.98;461910;113;922664;-76
2022/01/30 00:27:32;;;;;;;2.99;2.75;;;;;;;1.40;77.98;100412.51;462456;114;922600;-75
2022/01/30 00:28:33;;;;;;;2.59;2.40;;;;;;;1.40;77.90;100404.45;462766;113;922935;-76
2022/01/30 00:29:37;;;;;;;2.56;2.37;;;;;;;1.38;77.94;100411.00;462724;113;922605;-77
2022/01/30 00:30:40;;;;;;;2.93;2.64;;;;;;;1.38;77.94;100414.50;462661;113;923018;-76
2022/01/30 00:31:43;;;;;;;2.67;2.46;;;;;;;1.37;77.89;100409.31;462546;114;922604;-76
2022/01/30 00:32:48;;;;;;;4.41;3.51;;;;;;;1.38;77.94;100408.31;459468;113;930208;-76
2022/01/30 00:33:54;;;;;;;3.28;3.02;;;;;;;1.37;77.93;100407.47;459089;113;922566;-78
2022/01/30 00:34:57;;;;;;;3.19;2.59;;;;;;;1.37;77.96;100407.47;456118;114;922999;-76
2022/01/30 00:36:00;;;;;;;3.31;2.91;;;;;;;1.38;77.94;100405.63;457886;114;930500;-77
2022/01/30 00:37:04;;;;;;;3.46;3.17;;;;;;;1.38;78.06;100403.75;461743;113;922578;-75
2022/01/30 00:38:16;;;;;;;3.14;2.81;;;;;;;1.40;77.98;100407.14;462505;112;922771;-76
2022/01/30 00:39:19;;;;;;;2.71;2.48;;;;;;;1.40;77.98;100399.08;460717;114;930726;-77
2022/01/30 00:40:24;;;;;;;3.20;2.92;;;;;;;1.41;77.91;100399.92;460517;114;923063;-77
2022/01/30 00:41:28;;;;;;;2.92;2.72;;;;;;;1.41;77.90;100397.23;461688;114;923458;-75
2022/01/30 00:42:32;;;;;;;3.08;2.57;;;;;;;1.40;77.88;100390.17;461636;113;922606;-76
2022/01/30 00:43:35;;;;;;;2.44;2.27;;;;;;;1.41;77.93;100389.17;461483;113;930457;-76
2022/01/30 00:44:39;;;;;;;3.02;2.67;;;;;;;1.41;77.91;100386.49;461357;113;922564;-76
2022/01/30 00:45:42;;;;;;;3.00;2.78;;;;;;;1.42;77.78;100389.03;464261;113;922751;-76
2022/01/30 00:46:46;;;;;;;2.99;2.54;;;;;;;1.42;77.71;100385.50;463303;113;923581;-76
2022/01/30 00:47:50;;;;;;;2.60;2.40;;;;;;;1.42;77.66;100388.18;463641;114;922571;-76
2022/01/30 00:48:54;;;;;;;3.00;2.74;;;;;;;1.42;77.64;100391.71;463348;114;922607;-76
2022/01/30 00:49:57;;;;;;;2.91;2.71;;;;;;;1.41;77.53;100383.80;450025;115;923139;-76
2022/01/30 00:51:01;;;;;;;3.24;2.98;;;;;;;1.41;77.58;100387.34;449921;114;930359;-76
2022/01/30 00:52:06;;;;;;;3.52;3.21;;;;;;;1.41;77.53;100383.80;461857;114;922471;-76
2022/01/30 00:53:09;;;;;;;2.99;2.79;;;;;;;1.41;77.41;100381.12;462599;114;922566;-75
2022/01/30 00:54:12;;;;;;;3.58;3.27;;;;;;;1.41;77.32;100381.12;462801;113;922854;-76
2022/01/30 00:55:16;;;;;;;3.94;3.57;;;;;;;1.40;77.29;100384.80;462579;114;922592;-77
2022/01/30 00:56:19;;;;;;;4.05;3.75;;;;;;;1.40;77.28;100382.12;462902;114;922633;-76
2022/01/30 00:57:22;;;;;;;3.94;3.64;;;;;;;1.40;77.22;100377.59;462754;114;930459;-77
2022/01/30 00:58:25;;;;;;;4.79;3.42;;;;;;;1.40;77.12;100380.27;462168;113;923029;-76
2022/01/30 00:59:28;;;;;;;3.62;3.33;;;;;;;1.39;77.09;100377.73;461884;113;922440;-76
2022/01/30 01:00:32;;;;;;;3.29;3.05;;;;;;;1.38;77.08;100376.08;462863;113;922449;-77
2022/01/30 01:01:35;;;;;;;3.12;2.89;;;;;;;1.39;77.06;100375.05;461825;112;922607;-76
2022/01/30 01:02:39;;;;;;;2.70;2.50;;;;;;;1.39;77.08;100372.37;460762;114;923124;-76
2022/01/30 01:03:44;;;;;;;2.77;2.57;;;;;;;1.41;76.94;100375.75;450954;114;930521;-78
2022/01/30 01:04:48;;;;;;;4.28;2.90;;;;;;;1.40;76.83;100368.69;450170;114;922731;-77
2022/01/30 01:05:51;;;;;;;2.71;2.48;;;;;;;1.40;76.85;100374.06;460888;113;922987;-76
2022/01/30 01:06:58;;;;;;;2.72;2.54;;;;;;;1.42;76.85;100374.75;461969;113;922723;-77
2022/01/30 01:08:10;;;;;;;2.71;2.51;;;;;;;1.41;76.77;100373.06;460853;113;922471;-77
2022/01/30 01:09:10;;;;;;;2.14;2.04;;;;;;;1.42;76.73;100372.91;458869;114;923330;-76
2022/01/30 01:10:40;;;;;;;2.70;2.49;;;;;;;1.44;76.69;100375.41;461665;114;922964;-76
2022/01/30 01:13:44;;;;;;;3.06;2.69;;;;;;;1.44;76.53;100365.51;462339;114;922646;-76
2022/01/30 01:23:32;;;;;;;2.78;2.58;;;;;;;1.37;76.20;100351.06;457997;113;923405;-77
2022/01/30 01:24:33;;;;;;;3.18;2.95;;;;;;;1.37;76.15;100351.06;459103;113;923273;-77
2022/01/30 01:25:38;;;;;;;3.17;2.91;;;;;;;1.36;76.13;100352.06;461816;114;922626;-77
2022/01/30 01:26:41;;;;;;;3.25;2.92;;;;;;;1.37;76.19;100353.75;460295;114;922551;-76
2022/01/30 01:27:44;;;;;;;2.83;2.63;;;;;;;1.36;76.14;100354.75;460932;114;930460;-76
2022/01/30 01:28:47;;;;;;;3.87;3.33;;;;;;;1.35;76.02;100345.00;461732;113;923290;-76
2022/01/30 01:29:50;;;;;;;3.09;2.83;;;;;;;1.34;76.00;100342.47;461173;114;922574;-76
2022/01/30 01:30:54;;;;;;;3.42;3.04;;;;;;;1.34;76.06;100342.47;460596;114;922629;-76
2022/01/30 01:31:57;;;;;;;3.31;3.01;;;;;;;1.33;76.07;100340.78;460950;113;922718;-75
2022/01/30 01:33:02;;;;;;;3.63;3.32;;;;;;;1.34;76.15;100342.47;461953;114;922611;-77
2022/01/30 01:35:16;;;;;;;3.06;2.65;;;;;;;1.33;76.05;100340.78;462021;114;922513;-76
2022/01/30 01:36:19;;;;;;;2.83;2.63;;;;;;;1.33;76.08;100338.09;462414;114;922814;-76
2022/01/30 01:37:22;;;;;;;2.72;2.52;;;;;;;1.32;76.06;100336.44;463060;113;922661;-76
2022/01/30 01:38:25;;;;;;;2.71;2.51;;;;;;;1.32;76.06;100339.13;461900;114;922980;-78
2022/01/30 01:39:29;;;;;;;2.81;2.61;;;;;;;1.31;76.07;100343.65;461663;114;922512;-75
2022/01/30 01:40:32;;;;;;;2.49;2.31;;;;;;;1.31;76.11;100340.12;462312;114;922870;-77
2022/01/30 01:41:36;;;;;;;3.67;3.29;;;;;;;1.30;76.03;100335.74;453484;115;923368;-76
2022/01/30 01:42:39;;;;;;;3.00;2.38;;;;;;;1.29;76.03;100337.58;452575;116;923550;-76
2022/01/30 01:43:42;;;;;;;2.66;2.46;;;;;;;1.28;76.07;100332.36;452925;114;922716;-75
2022/01/30 01:44:50;;;;;;;2.50;2.30;;;;;;;1.27;75.99;100336.08;461887;113;923048;-76
2022/01/30 01:45:53;;;;;;;2.57;2.37;;;;;;;1.25;76.02;100334.39;461914;113;922905;-76
2022/01/30 01:47:47;;;;;;;2.82;2.53;;;;;;;1.35;76.07;100336.09;471539;110;946281;-77
2022/01/30 01:48:52;;;;;;;2.94;2.74;;;;;;;1.22;76.07;100334.70;464362;112;922804;-77
2022/01/30 01:49:55;;;;;;;2.91;2.66;;;;;;;1.21;76.08;100327.63;464965;112;930574;-77
2022/01/30 01:51:07;;;;;;;3.04;2.82;;;;;;;1.21;75.96;100330.32;465118;112;922934;-77
2022/01/30 01:53:24;;;;;;;2.73;2.54;;;;;;;1.17;75.84;100328.97;457540;114;922838;-76
2022/01/30 01:54:27;;;;;;;3.19;2.65;;;;;;;1.15;75.86;100327.46;447166;116;922535;-76
2022/01/30 01:55:30;;;;;;;2.67;2.50;;;;;;;1.10;75.84;100327.91;464911;112;922605;-76
2022/01/30 01:56:34;;;;;;;3.31;3.01;;;;;;;1.09;76.00;100326.26;465679;112;930709;-76
2022/01/30 01:57:38;;;;;;;2.90;2.61;;;;;;;1.11;76.15;100323.39;463630;112;923174;-77
2022/01/30 01:58:44;;;;;;;4.01;3.32;;;;;;;1.11;76.09;100326.92;463412;112;922616;-77
2022/01/30 02:00:07;;;;;;;3.24;2.94;;;;;;;1.10;76.15;100325.23;465036;112;922869;-75
2022/01/30 02:01:15;;;;;;;4.21;3.83;;;;;;;1.10;76.09;100322.55;464515;112;922694;-76
2022/01/30 02:02:20;;;;;;;6.13;5.63;;;;;;;1.10;76.00;100325.23;464002;111;922684;-75
2022/01/30 02:03:23;;;;;;;3.90;3.58;;;;;;;1.08;75.99;100321.89;453374;114;930834;-76
2022/01/30 02:04:28;;;;;;;4.44;3.66;;;;;;;1.08;75.89;100319.20;453485;114;923445;-76
2022/01/30 02:05:34;;;;;;;4.99;4.58;;;;;;;1.05;75.99;100319.50;455835;112;924472;-77
2022/01/30 02:06:36;;;;;;;4.97;4.56;;;;;;;1.04;75.99;100312.48;465155;112;922819;-76
2022/01/30 02:08:53;;;;;;;3.79;3.49;;;;;;;1.04;75.99;100312.48;437561;119;922842;-76
2022/01/30 02:09:52;;;;;;;4.45;3.11;;;;;;;1.03;75.94;100315.31;453370;112;923273;-76
2022/01/30 02:12:05;;;;;;;2.78;2.58;;;;;;;0.99;75.99;100312.12;465015;112;930613;-75
2022/01/30 02:13:36;;;;;;;3.37;3.05;;;;;;;1.00;76.00;100312.93;465621;112;922581;-75
2022/01/30 02:15:11;;;;;;;3.47;3.19;;;;;;;0.99;76.05;100301.37;462515;112;922715;-76
2022/01/30 02:26:02;;;;;;;3.78;3.46;;;;;;;0.98;76.35;100310.43;456013;115;922733;-77
2022/01/30 02:27:05;;;;;;;3.65;3.35;;;;;;;0.97;76.29;100303.37;464069;112;923032;-77
2022/01/30 02:28:16;;;;;;;3.89;3.56;;;;;;;0.97;76.40;100303.37;464529;112;922946;-77
2022/01/30 02:29:18;;;;;;;4.07;3.71;;;;;;;0.98;76.40;100304.22;464183;112;930479;-77
2022/01/30 02:30:22;;;;;;;4.55;4.18;;;;;;;0.99;76.39;100303.22;464598;112;923700;-76
2022/01/30 02:31:26;;;;;;;4.64;4.24;;;;;;;1.00;76.26;100302.19;463873;112;922896;-76
2022/01/30 02:32:29;;;;;;;4.70;4.27;;;;;;;0.99;76.15;100297.85;465030;112;922654;-75
2022/01/30 02:33:32;;;;;;;4.99;4.56;;;;;;;1.00;76.13;100303.03;465313;112;922475;-75
2022/01/30 02:34:35;;;;;;;4.54;4.09;;;;;;;0.99;76.15;100300.53;464829;112;922676;-77
2022/01/30 02:35:38;;;;;;;5.45;5.03;;;;;;;1.00;76.11;100296.82;465078;112;923050;-77
2022/01/30 02:36:49;;;;;;;5.64;5.22;;;;;;;1.00;76.02;100302.19;464988;111;922891;-76
2022/01/30 02:37:54;;;;;;;5.07;4.67;;;;;;;1.01;75.90;100299.36;464811;112;922936;-76
2022/01/30 02:38:59;;;;;;;5.83;5.11;;;;;;;1.00;75.71;100303.03;465031;112;922996;-77
2022/01/30 02:40:07;;;;;;;4.93;4.56;;;;;;;1.00;75.73;100302.19;465317;112;922558;-77
2022/01/30 02:41:09;;;;;;;5.20;4.78;;;;;;;1.00;75.76;100303.03;465296;112;923055;-76
2022/01/30 02:42:18;;;;;;;5.29;4.89;;;;;;;1.00;75.75;100305.72;464521;112;922647;-76
2022/01/30 02:43:23;;;;;;;4.40;4.01;;;;;;;1.02;75.68;100305.57;465039;112;923320;-77
2022/01/30 02:44:33;;;;;;;5.38;4.56;;;;;;;1.04;75.66;100304.42;465716;112;922562;-76
2022/01/30 02:45:34;;;;;;;4.95;4.22;;;;;;;1.05;75.59;100306.08;465094;112;923927;-76
2022/01/30 02:46:41;;;;;;;3.98;3.54;;;;;;;1.06;75.47;100305.08;465773;112;922736;-75
2022/01/30 02:47:56;;;;;;;4.57;4.16;;;;;;;1.07;75.38;100295.19;464680;112;923030;-76
2022/01/30 02:48:59;;;;;;;4.07;3.77;;;;;;;1.08;75.23;100299.56;465160;113;922561;-76
2022/01/30 02:50:21;;;;;;;4.37;3.97;;;;;;;1.07;75.15;100303.24;465659;113;922987;-76
2022/01/30 02:51:23;;;;;;;4.07;3.69;;;;;;;1.06;75.05;100294.34;463981;113;922613;-76
2022/01/30 02:52:26;;;;;;;4.64;4.14;;;;;;;1.05;75.03;100297.18;463368;113;930610;-76
2022/01/30 02:53:31;;;;;;;4.40;4.10;;;;;;;1.03;75.00;100302.73;465355;113;922753;-76
2022/01/30 02:54:34;;;;;;;4.11;3.81;;;;;;;1.03;74.94;100297.36;464212;112;923069;-77
2022/01/30 02:55:37;;;;;;;3.83;3.53;;;;;;;1.04;74.97;100292.84;464576;113;922897;-76
2022/01/30 02:56:42;;;;;;;4.64;4.11;;;;;;;1.04;74.97;100292.84;464454;113;922569;-76
2022/01/30 02:57:46;;;;;;;4.68;4.29;;;;;;;1.04;74.94;100296.37;465250;113;922669;-76
2022/01/30 02:58:49;;;;;;;4.84;4.14;;;;;;;1.07;75.05;100292.50;464684;112;922541;-76
2022/01/30 02:59:52;;;;;;;4.37;3.97;;;;;;;1.07;75.00;100296.03;464799;113;923051;-76
2022/01/30 03:00:56;;;;;;;4.25;3.91;;;;;;;1.09;74.95;100293.20;465246;113;922776;-75
2022/01/30 03:02:01;;;;;;;4.04;3.63;;;;;;;1.11;74.90;100293.86;465706;113;922488;-75
2022/01/30 03:03:05;;;;;;;4.09;3.73;;;;;;;1.12;74.75;100293.70;464395;113;930692;-75
2022/01/30 03:04:08;;;;;;;4.34;3.94;;;;;;;1.12;74.65;100287.48;465379;112;922569;-75
2022/01/30 03:05:11;;;;;;;4.69;4.29;;;;;;;1.13;74.54;100284.66;465336;112;922464;-76
2022/01/30 03:06:16;;;;;;;4.93;4.33;;;;;;;1.13;74.37;100281.97;455806;115;930676;-75
2022/01/30 03:07:19;;;;;;;4.06;3.70;;;;;;;1.13;74.33;100281.13;456140;113;923389;-76
2022/01/30 03:08:24;;;;;;;4.10;3.76;;;;;;;1.11;74.27;100275.91;464478;113;922698;-76
2022/01/30 03:09:27;;;;;;;3.26;2.96;;;;;;;1.11;74.29;100275.06;464970;113;922789;-76
2022/01/30 03:10:31;;;;;;;5.10;4.09;;;;;;;1.10;74.29;100282.27;440256;118;923027;-74
2022/01/30 03:11:34;;;;;;;3.76;3.22;;;;;;;1.11;74.25;100281.28;457725;113;922672;-76
2022/01/30 03:12:38;;;;;;;4.63;3.69;;;;;;;1.10;74.24;100276.91;464995;113;922687;-75
2022/01/30 03:13:41;;;;;;;3.43;3.16;;;;;;;1.11;74.15;100275.06;465650;112;922502;-75
2022/01/30 03:14:44;;;;;;;3.61;3.31;;;;;;;1.10;74.07;100284.95;456331;115;922590;-75
2022/01/30 03:15:47;;;;;;;5.25;3.47;;;;;;;1.10;73.97;100276.91;444674;118;923420;-75
2022/01/30 03:16:50;;;;;;;3.26;2.98;;;;;;;1.09;73.96;100275.25;456628;114;923003;-75
2022/01/30 03:17:53;;;;;;;3.06;2.86;;;;;;;1.09;73.92;100285.14;464325;113;922753;-76
2022/01/30 03:18:57;;;;;;;3.42;3.14;;;;;;;1.09;73.95;100285.14;464221;113;922938;-76
2022/01/30 03:20:00;;;;;;;3.84;3.16;;;;;;;1.09;73.98;100277.09;464765;113;922592;-75
2022/01/30 03:21:04;;;;;;;3.55;3.27;;;;;;;1.10;73.98;100278.78;463183;113;922997;-76
2022/01/30 03:22:07;;;;;;;3.53;3.16;;;;;;;1.11;73.90;100277.75;464983;113;922720;-75
2022/01/30 03:23:10;;;;;;;3.73;3.43;;;;;;;1.11;73.91;100278.59;450954;115;922898;-75
2022/01/30 03:24:14;;;;;;;2.98;2.73;;;;;;;1.12;73.91;100274.91;450128;116;922950;-76
2022/01/30 03:25:17;;;;;;;3.84;3.39;;;;;;;1.11;73.82;100278.59;455908;115;930567;-74
2022/01/30 03:26:37;;;;;;;4.14;3.73;;;;;;;1.13;73.85;100271.23;447501;117;922932;-75
2022/01/30 03:27:51;;;;;;;3.33;3.03;;;;;;;1.13;73.77;100276.59;453429;116;922974;-75
2022/01/30 03:28:52;;;;;;;3.81;3.48;;;;;;;1.13;73.70;100276.59;445917;116;922659;-75
2022/01/30 03:30:13;;;;;;;4.27;3.88;;;;;;;1.12;73.57;100269.54;456367;115;922716;-74
2022/01/30 03:31:17;;;;;;;3.76;3.13;;;;;;;1.12;73.64;100272.22;449890;117;922835;-75
2022/01/30 03:32:21;;;;;;;3.78;3.43;;;;;;;1.14;73.71;100278.28;452507;116;923185;-76
2022/01/30 03:33:25;;;;;;;3.19;2.89;;;;;;;1.15;73.65;100274.61;451607;116;922589;-75
2022/01/30 03:34:28;;;;;;;3.35;3.04;;;;;;;1.15;73.63;100273.76;447646;116;922537;-75
2022/01/30 03:35:31;;;;;;;3.47;3.20;;;;;;;1.16;73.67;100278.09;446432;118;930492;-76
2022/01/30 03:36:35;;;;;;;4.85;3.17;;;;;;;1.17;73.60;100271.73;450502;115;922731;-75
2022/01/30 03:37:39;;;;;;;3.89;3.56;;;;;;;1.17;73.54;100269.89;446680;117;930997;-75
2022/01/30 03:38:42;;;;;;;3.98;3.58;;;;;;;1.17;73.48;100275.27;454122;115;923506;-74
2022/01/30 03:39:45;;;;;;;3.96;3.62;;;;;;;1.18;73.47;100270.73;448066;117;922671;-76
2022/01/30 03:40:49;;;;;;;3.83;3.52;;;;;;;1.17;73.44;100275.27;447748;117;922793;-75
2022/01/30 03:41:53;;;;;;;4.32;3.09;;;;;;;1.18;73.35;100273.42;455102;115;922583;-76
2022/01/30 03:42:56;;;;;;;3.42;3.12;;;;;;;1.16;73.34;100268.20;439384;120;930593;-76
2022/01/30 03:43:59;;;;;;;3.73;3.43;;;;;;;1.16;73.25;100267.36;449808;115;922664;-75
2022/01/30 03:45:03;;;;;;;4.04;3.72;;;;;;;1.16;73.30;100268.20;456176;114;923279;-76
2022/01/30 03:46:07;;;;;;;5.10;4.69;;;;;;;1.17;73.41;100263.67;464673;112;922589;-76
2022/01/30 03:47:11;;;;;;;5.14;4.62;;;;;;;1.20;73.42;100266.05;464766;112;930849;-75
2022/01/30 03:48:15;;;;;;;4.71;4.28;;;;;;;1.21;73.42;100265.87;460795;112;922669;-76
2022/01/30 03:49:29;;;;;;;4.08;3.76;;;;;;;1.22;73.37;100262.19;457090;114;922730;-75
2022/01/30 03:50:33;;;;;;;4.16;3.83;;;;;;;1.23;73.26;100261.19;457059;114;923023;-74
2022/01/30 03:51:36;;;;;;;5.28;3.64;;;;;;;1.23;73.17;100260.34;458870;114;922657;-76
2022/01/30 03:52:41;;;;;;;4.07;3.67;;;;;;;1.21;73.11;100265.87;455273;114;922557;-77
2022/01/30 03:53:44;;;;;;;4.74;3.53;;;;;;;1.21;73.16;100259.69;458205;114;922607;-74
2022/01/30 03:54:47;;;;;;;6.42;4.37;;;;;;;1.20;73.14;100264.22;458622;114;922549;-76
2022/01/30 03:55:51;;;;;;;4.47;4.04;;;;;;;1.20;73.13;100252.62;459264;114;922570;-75
2022/01/30 03:56:55;;;;;;;4.43;3.67;;;;;;;1.20;73.10;100245.41;458179;113;922498;-74
2022/01/30 03:58:01;;;;;;;5.21;4.71;;;;;;;1.20;73.06;100249.94;458860;114;922928;-75
2022/01/30 03:59:04;;;;;;;4.92;4.37;;;;;;;1.21;73.13;100252.44;449670;116;924567;-75
2022/01/30 04:00:09;;;;;;;5.34;4.82;;;;;;;1.23;73.21;100258.50;441945;117;930762;-75
2022/01/30 04:01:14;;;;;;;5.27;4.48;;;;;;;1.24;73.12;100253.98;448528;114;923894;-74
2022/01/30 04:02:17;;;;;;;5.03;4.55;;;;;;;1.24;73.03;100252.14;458890;114;922607;-74
2022/01/30 04:03:21;;;;;;;4.91;4.46;;;;;;;1.27;73.04;100255.52;458890;114;922609;-75
2022/01/30 04:04:24;;;;;;;5.10;4.69;;;;;;;1.28;73.07;100251.80;457665;114;922547;-76
2022/01/30 04:05:28;;;;;;;5.09;4.62;;;;;;;1.30;73.17;100253.33;456724;114;930452;-75
2022/01/30 04:06:32;;;;;;;5.12;4.62;;;;;;;1.32;73.15;100245.12;458018;114;922717;-75
2022/01/30 04:07:37;;;;;;;4.93;4.50;;;;;;;1.35;73.05;100242.09;457029;114;923357;-76
2022/01/30 04:08:48;;;;;;;5.06;4.57;;;;;;;1.34;72.94;100241.24;449394;114;923061;-75
2022/01/30 04:09:53;;;;;;;4.76;4.35;;;;;;;1.35;72.96;100244.77;457647;114;922585;-77
2022/01/30 04:10:58;;;;;;;4.76;4.38;;;;;;;1.34;72.83;100240.41;456860;114;922548;-75
2022/01/30 04:12:04;;;;;;;5.78;5.18;;;;;;;1.33;72.84;100250.30;457673;114;923597;-74
2022/01/30 04:13:21;;;;;;;4.94;4.44;;;;;;;1.32;72.90;100237.91;455368;114;922567;-76
2022/01/30 04:14:36;;;;;;;5.46;4.59;;;;;;;1.34;73.02;100241.24;433037;120;922801;-76
2022/01/30 04:15:44;;;;;;;5.04;4.53;;;;;;;1.36;73.00;100239.25;433648;120;923044;-75
2022/01/30 04:16:52;;;;;;;4.93;4.44;;;;;;;1.39;72.95;100244.28;449352;114;922553;-75
2022/01/30 04:18:01;;;;;;;4.76;4.37;;;;;;;1.39;72.84;100241.59;458392;114;922558;-74
2022/01/30 04:19:07;;;;;;;4.68;4.26;;;;;;;1.41;72.75;100241.44;457825;113;922725;-74
2022/01/30 04:20:28;;;;;;;5.72;5.22;;;;;;;1.41;72.68;100241.44;458771;114;922640;-74
2022/01/30 04:21:51;;;;;;;4.94;4.53;;;;;;;1.42;72.67;100237.75;458366;114;922584;-78
2022/01/30 04:22:57;;;;;;;5.68;4.58;;;;;;;1.42;72.62;100237.75;456708;113;922572;-74
2022/01/30 04:24:02;;;;;;;6.11;4.53;;;;;;;1.41;72.58;100236.91;448593;116;922687;-73
2022/01/30 04:25:24;;;;;;;4.98;4.52;;;;;;;1.42;72.67;100240.44;452633;114;922742;-76
2022/01/30 04:26:43;;;;;;;5.21;4.27;;;;;;;1.43;72.52;100239.44;439691;119;922768;-75
2022/01/30 04:27:53;;;;;;;5.11;4.69;;;;;;;1.55;72.41;100243.47;469476;110;947424;-74
2022/01/30 04:28:59;;;;;;;5.89;5.07;;;;;;;1.41;72.18;100236.06;458339;113;922546;-76
2022/01/30 04:30:15;;;;;;;5.57;5.09;;;;;;;1.39;72.03;100238.06;442008;117;922727;-73
2022/01/30 04:31:26;;;;;;;5.28;4.82;;;;;;;1.35;71.95;100239.41;442610;117;923492;-77
2022/01/30 04:32:33;;;;;;;5.77;5.24;;;;;;;1.33;71.92;100238.72;454561;114;922648;-75
2022/01/30 04:33:41;;;;;;;5.57;5.10;;;;;;;1.30;71.88;100234.53;438348;118;923408;-77
2022/01/30 04:34:57;;;;;;;5.75;5.25;;;;;;;1.29;71.81;100240.05;452100;113;922908;-75
2022/01/30 04:36:09;;;;;;;5.11;4.61;;;;;;;1.25;71.73;100239.55;452323;113;922928;-75
2022/01/30 04:37:24;;;;;;;5.62;5.01;;;;;;;1.21;71.79;100239.02;455835;113;922676;-76
2022/01/30 04:40:34;;;;;;;5.95;5.38;;;;;;;1.15;71.80;100228.11;453489;115;922677;-76
2022/01/30 04:41:57;;;;;;;6.34;5.27;;;;;;;1.12;71.74;100236.47;457479;113;922534;-74
2022/01/30 04:52:38;;;;;;;4.69;4.29;;;;;;;0.92;71.98;100246.64;456757;113;922692;-77
2022/01/30 04:53:53;;;;;;;4.99;4.59;;;;;;;0.92;72.06;100243.96;450425;113;922668;-76
2022/01/30 04:57:37;;;;;;;4.23;3.81;;;;;;;0.92;71.87;100246.64;456611;113;922678;-76
2022/01/30 04:59:04;;;;;;;4.44;3.94;;;;;;;0.91;71.90;100247.64;456958;113;922540;-76
2022/01/30 05:00:19;;;;;;;4.31;3.91;;;;;;;0.91;71.94;100241.43;454018;113;922691;-74
2022/01/30 05:01:36;;;;;;;8.64;3.99;;;;;;;0.90;71.87;100248.64;435867;119;922745;-77
2022/01/30 05:04:03;;;;;;;3.88;3.46;;;;;;;0.88;71.86;100253.34;435816;118;923122;-75
2022/01/30 05:06:52;;;;;;;3.67;3.34;;;;;;;0.88;71.89;100256.03;451383;116;922734;-76
2022/01/30 05:07:47;;;;;;;3.58;3.28;;;;;;;0.89;71.95;100257.69;466200;111;923235;-75
2022/01/30 05:08:55;;;;;;;3.92;3.08;;;;;;;0.90;71.93;100248.64;467459;111;923111;-75
2022/01/30 05:10:04;;;;;;;3.57;2.98;;;;;;;0.92;71.89;100254.70;467111;112;922673;-74
2022/01/30 05:11:15;;;;;;;7.16;3.79;;;;;;;0.92;71.89;100254.70;467877;112;922613;-74
2022/01/30 05:12:26;;;;;;;3.01;2.70;;;;;;;0.93;71.67;100245.65;465261;111;922641;-74
2022/01/30 05:13:37;;;;;;;3.49;3.09;;;;;;;0.95;71.58;100248.15;461608;111;922840;-76
2022/01/30 05:14:58;;;;;;;4.08;2.99;;;;;;;0.96;71.53;100257.89;468461;112;922944;-77
2022/01/30 05:16:07;;;;;;;4.09;2.84;;;;;;;0.95;71.50;100251.67;468432;111;922590;-76
2022/01/30 05:17:28;;;;;;;3.49;3.14;;;;;;;0.95;71.60;100256.20;467092;111;922537;-75
2022/01/30 05:18:46;;;;;;;3.20;2.90;;;;;;;0.97;71.71;100259.58;466914;111;922547;-76
2022/01/30 05:20:00;;;;;;;3.66;2.71;;;;;;;0.98;71.72;100262.11;466572;111;922630;-75
2022/01/30 05:21:05;;;;;;;4.01;2.99;;;;;;;1.01;71.63;100258.24;468062;111;922414;-76
2022/01/30 05:22:16;;;;;;;3.64;3.11;;;;;;;1.03;71.59;100254.41;467083;111;922374;-74
2022/01/30 05:23:28;;;;;;;3.07;2.76;;;;;;;1.06;71.45;100258.59;466932;112;922984;-76
2022/01/30 05:24:45;;;;;;;4.30;3.13;;;;;;;1.05;71.28;100255.07;467050;112;922805;-75
2022/01/30 05:25:52;;;;;;;4.00;3.05;;;;;;;1.04;71.20;100261.47;466649;111;922787;-76
2022/01/30 05:26:57;;;;;;;3.43;2.96;;;;;;;1.04;71.12;100258.78;468370;111;922878;-77
2022/01/30 05:28:08;;;;;;;2.96;2.42;;;;;;;1.02;71.06;100257.25;465447;112;922371;-73
2022/01/30 05:29:17;;;;;;;3.27;2.81;;;;;;;1.01;71.14;100269.83;466180;111;922498;-78
2022/01/30 05:30:26;;;;;;;3.06;2.41;;;;;;;1.01;70.79;100255.56;467171;111;922184;-75
2022/01/30 05:31:47;;;;;;;2.73;2.33;;;;;;;0.99;70.93;100258.43;450681;116;923025;-77
2022/01/30 05:33:10;;;;;;;6.93;3.57;;;;;;;0.99;71.00;100258.43;446998;116;930339;-75
2022/01/30 05:34:31;;;;;;;3.48;2.49;;;;;;;1.02;71.16;100257.25;456952;112;922683;-74
2022/01/30 05:35:48;;;;;;;3.38;2.28;;;;;;;1.05;71.11;100256.91;467845;112;922362;-76
2022/01/30 05:37:11;;;;;;;4.31;2.73;;;;;;;1.07;71.07;100250.39;468261;112;922820;-77
2022/01/30 05:38:33;;;;;;;3.41;2.69;;;;;;;1.09;71.05;100259.14;468257;111;922372;-75
2022/01/30 05:39:54;;;;;;;2.44;2.24;;;;;;;1.12;71.06;100257.95;468560;111;922511;-75
2022/01/30 05:41:09;;;;;;;4.61;2.80;;;;;;;1.13;70.93;100259.64;464823;111;922718;-75
2022/01/30 05:42:28;;;;;;;2.58;2.33;;;;;;;1.12;70.81;100258.80;466399;111;922614;-74
2022/01/30 05:43:52;;;;;;;3.08;2.50;;;;;;;1.13;70.93;100260.48;465624;112;922651;-77
2022/01/30 05:45:10;;;;;;;2.64;2.44;;;;;;;1.15;70.91;100255.81;466132;111;922622;-77
2022/01/30 05:46:39;;;;;;;3.02;2.61;;;;;;;1.16;70.82;100260.15;468043;111;923261;-76
2022/01/30 05:47:59;;;;;;;2.77;2.46;;;;;;;1.16;70.79;100256.63;464917;112;922899;-74
2022/01/30 05:48:59;;;;;;;2.39;2.17;;;;;;;1.16;70.78;100257.46;466715;112;922559;-76
2022/01/30 05:50:08;;;;;;;3.67;2.85;;;;;;;1.17;70.79;100263.67;464668;111;922880;-75
2022/01/30 05:51:15;;;;;;;2.92;2.50;;;;;;;1.20;70.74;100255.31;467174;112;922817;-75
2022/01/30 05:52:24;;;;;;;3.17;2.89;;;;;;;1.21;70.85;100257.81;467740;111;922547;-75
2022/01/30 05:53:30;;;;;;;3.25;2.89;;;;;;;1.25;70.77;100253.82;460932;111;922320;-73
2022/01/30 05:54:37;;;;;;;2.89;2.56;;;;;;;1.29;70.63;100250.80;466814;111;922579;-77
2022/01/30 05:55:40;;;;;;;4.22;2.87;;;;;;;1.31;70.60;100251.48;466896;112;923561;-77